sensor_id;sensor_type;location;lat;lon;timestamp;P1;durP1;ratioP1;P2;durP2;ratioP2
33367;SDS011;19724;51.114;13.906;2023-02-18T00:00:07;5.70;;;1.70;;
33367;SDS011;19724;51.114;13.906;2023-02-18T00:02:37;7.38;;;1.55;;
33367;SDS011;19724;51.114;13.906;2023-02-18T00:05:03;6.57;;;3.03;;
33367;SDS011;19724;51.114;13.906;2023-02-18T00:07:32;4.85;;;1.67;;
33367;SDS011;19724;51.114;13.906;2023-02-18T00:10:02;5.05;;;1.63;;
33367;SDS011;19724;51.114;13.906;2023-02-18T00:12:29;4.63;;;1.52;;
33367;SDS011;19724;51.114;13.906;2023-02-18T00:14:55;8.15;;;1.50;;
33367;SDS011;19724;51.114;13.906;2023-02-18T00:17:21;5.53;;;1.98;;
33367;SDS011;19724;51.114;13.906;2023-02-18T00:19:47;7.57;;;1.40;;
33367;SDS011;19724;51.114;13.906;2023-02-18T00:22:12;8.48;;;1.65;;
33367;SDS011;19724;51.114;13.906;2023-02-18T00:24:37;8.35;;;1.50;;
33367;SDS011;19724;51.114;13.906;2023-02-18T00:27:03;5.32;;;1.60;;
33367;SDS011;19724;51.114;13.906;2023-02-18T00:29:29;5.10;;;1.20;;
33367;SDS011;19724;51.114;13.906;2023-02-18T00:31:54;4.72;;;1.83;;
33367;SDS011;19724;51.114;13.906;2023-02-18T00:34:19;4.43;;;1.67;;
33367;SDS011;19724;51.114;13.906;2023-02-18T00:36:45;3.58;;;1.40;;
33367;SDS011;19724;51.114;13.906;2023-02-18T00:39:11;3.70;;;1.20;;
33367;SDS011;19724;51.114;13.906;2023-02-18T00:41:37;6.95;;;1.48;;
33367;SDS011;19724;51.114;13.906;2023-02-18T00:44:02;7.63;;;1.70;;
33367;SDS011;19724;51.114;13.906;2023-02-18T00:46:28;5.43;;;1.60;;
33367;SDS011;19724;51.114;13.906;2023-02-18T00:48:54;6.32;;;1.70;;
33367;SDS011;19724;51.114;13.906;2023-02-18T00:51:20;8.57;;;1.58;;
33367;SDS011;19724;51.114;13.906;2023-02-18T00:53:47;3.42;;;0.95;;
33367;SDS011;19724;51.114;13.906;2023-02-18T00:56:13;4.13;;;1.00;;
33367;SDS011;19724;51.114;13.906;2023-02-18T00:58:38;3.38;;;1.20;;
33367;SDS011;19724;51.114;13.906;2023-02-18T01:01:05;5.38;;;1.48;;
33367;SDS011;19724;51.114;13.906;2023-02-18T01:03:31;4.10;;;1.30;;
33367;SDS011;19724;51.114;13.906;2023-02-18T01:05:57;7.57;;;1.25;;
33367;SDS011;19724;51.114;13.906;2023-02-18T01:08:22;3.88;;;1.27;;
33367;SDS011;19724;51.114;13.906;2023-02-18T01:10:48;7.93;;;2.03;;
33367;SDS011;19724;51.114;13.906;2023-02-18T01:13:17;6.55;;;1.40;;
33367;SDS011;19724;51.114;13.906;2023-02-18T01:15:43;8.07;;;1.92;;
33367;SDS011;19724;51.114;13.906;2023-02-18T01:18:10;5.85;;;1.40;;
33367;SDS011;19724;51.114;13.906;2023-02-18T01:20:37;5.25;;;1.45;;
33367;SDS011;19724;51.114;13.906;2023-02-18T01:23:05;6.25;;;1.40;;
33367;SDS011;19724;51.114;13.906;2023-02-18T01:25:31;6.07;;;1.50;;
33367;SDS011;19724;51.114;13.906;2023-02-18T01:27:57;6.35;;;1.80;;
33367;SDS011;19724;51.114;13.906;2023-02-18T01:30:23;5.50;;;1.60;;
33367;SDS011;19724;51.114;13.906;2023-02-18T01:32:49;10.18;;;1.70;;
33367;SDS011;19724;51.114;13.906;2023-02-18T01:35:15;6.50;;;1.90;;
33367;SDS011;19724;51.114;13.906;2023-02-18T01:37:42;8.20;;;1.33;;
33367;SDS011;19724;51.114;13.906;2023-02-18T01:40:12;6.63;;;1.60;;
33367;SDS011;19724;51.114;13.906;2023-02-18T01:42:40;5.70;;;1.67;;
33367;SDS011;19724;51.114;13.906;2023-02-18T01:47:59;6.30;;;1.58;;
33367;SDS011;19724;51.114;13.906;2023-02-18T01:50:27;6.72;;;1.50;;
33367;SDS011;19724;51.114;13.906;2023-02-18T01:52:54;5.15;;;1.35;;
33367;SDS011;19724;51.114;13.906;2023-02-18T01:55:19;5.97;;;1.48;;
33367;SDS011;19724;51.114;13.906;2023-02-18T01:57:45;4.70;;;1.58;;
33367;SDS011;19724;51.114;13.906;2023-02-18T02:00:12;5.80;;;1.15;;
33367;SDS011;19724;51.114;13.906;2023-02-18T02:02:41;8.50;;;1.70;;
33367;SDS011;19724;51.114;13.906;2023-02-18T02:05:10;5.57;;;1.80;;
33367;SDS011;19724;51.114;13.906;2023-02-18T02:07:36;6.03;;;1.60;;
33367;SDS011;19724;51.114;13.906;2023-02-18T02:10:03;9.55;;;1.55;;
33367;SDS011;19724;51.114;13.906;2023-02-18T02:12:34;6.70;;;1.55;;
33367;SDS011;19724;51.114;13.906;2023-02-18T02:18:11;8.38;;;1.73;;
33367;SDS011;19724;51.114;13.906;2023-02-18T02:21:06;5.60;;;1.50;;
33367;SDS011;19724;51.114;13.906;2023-02-18T02:24:03;4.85;;;1.58;;
33367;SDS011;19724;51.114;13.906;2023-02-18T02:26:57;10.05;;;1.83;;
33367;SDS011;19724;51.114;13.906;2023-02-18T02:29:33;7.75;;;1.80;;
33367;SDS011;19724;51.114;13.906;2023-02-18T02:32:25;8.93;;;2.85;;
33367;SDS011;19724;51.114;13.906;2023-02-18T02:35:17;5.68;;;1.75;;
33367;SDS011;19724;51.114;13.906;2023-02-18T02:37:55;4.57;;;1.73;;
33367;SDS011;19724;51.114;13.906;2023-02-18T02:40:51;4.57;;;1.77;;
33367;SDS011;19724;51.114;13.906;2023-02-18T02:46:46;6.68;;;2.03;;
33367;SDS011;19724;51.114;13.906;2023-02-18T02:49:36;8.43;;;2.20;;
33367;SDS011;19724;51.114;13.906;2023-02-18T02:52:22;5.70;;;2.13;;
33367;SDS011;19724;51.114;13.906;2023-02-18T02:54:54;6.72;;;2.20;;
33367;SDS011;19724;51.114;13.906;2023-02-18T02:59:46;9.57;;;2.53;;
33367;SDS011;19724;51.114;13.906;2023-02-18T03:02:40;6.72;;;2.00;;
33367;SDS011;19724;51.114;13.906;2023-02-18T03:08:04;6.38;;;2.00;;
33367;SDS011;19724;51.114;13.906;2023-02-18T03:10:56;10.98;;;2.05;;
33367;SDS011;19724;51.114;13.906;2023-02-18T03:13:44;8.73;;;2.22;;
33367;SDS011;19724;51.114;13.906;2023-02-18T03:18:56;8.45;;;2.05;;
33367;SDS011;19724;51.114;13.906;2023-02-18T03:24:31;6.25;;;1.90;;
33367;SDS011;19724;51.114;13.906;2023-02-18T03:29:55;7.65;;;2.30;;
33367;SDS011;19724;51.114;13.906;2023-02-18T03:32:25;11.85;;;3.05;;
33367;SDS011;19724;51.114;13.906;2023-02-18T03:34:55;8.60;;;1.65;;
33367;SDS011;19724;51.114;13.906;2023-02-18T03:37:24;5.05;;;2.17;;
33367;SDS011;19724;51.114;13.906;2023-02-18T03:39:51;7.32;;;1.92;;
33367;SDS011;19724;51.114;13.906;2023-02-18T03:42:24;8.25;;;2.17;;
33367;SDS011;19724;51.114;13.906;2023-02-18T03:44:51;6.53;;;2.05;;
33367;SDS011;19724;51.114;13.906;2023-02-18T03:47:16;8.10;;;1.85;;
33367;SDS011;19724;51.114;13.906;2023-02-18T03:49:42;5.78;;;1.60;;
33367;SDS011;19724;51.114;13.906;2023-02-18T03:52:07;6.80;;;1.67;;
33367;SDS011;19724;51.114;13.906;2023-02-18T03:54:33;5.15;;;1.70;;
33367;SDS011;19724;51.114;13.906;2023-02-18T03:56:58;5.80;;;1.75;;
33367;SDS011;19724;51.114;13.906;2023-02-18T03:59:24;5.88;;;2.03;;
33367;SDS011;19724;51.114;13.906;2023-02-18T04:01:49;8.52;;;2.03;;
33367;SDS011;19724;51.114;13.906;2023-02-18T04:04:15;8.07;;;3.08;;
33367;SDS011;19724;51.114;13.906;2023-02-18T04:06:40;5.38;;;1.50;;
33367;SDS011;19724;51.114;13.906;2023-02-18T04:09:06;16.40;;;3.63;;
33367;SDS011;19724;51.114;13.906;2023-02-18T04:11:34;5.03;;;1.55;;
33367;SDS011;19724;51.114;13.906;2023-02-18T04:14:00;5.70;;;1.63;;
33367;SDS011;19724;51.114;13.906;2023-02-18T04:16:25;9.18;;;2.10;;
33367;SDS011;19724;51.114;13.906;2023-02-18T04:18:51;6.50;;;2.20;;
33367;SDS011;19724;51.114;13.906;2023-02-18T04:21:16;12.85;;;2.22;;
33367;SDS011;19724;51.114;13.906;2023-02-18T04:23:42;7.90;;;2.58;;
33367;SDS011;19724;51.114;13.906;2023-02-18T04:26:07;9.82;;;2.17;;
33367;SDS011;19724;51.114;13.906;2023-02-18T04:28:33;8.85;;;2.22;;
33367;SDS011;19724;51.114;13.906;2023-02-18T04:30:58;11.27;;;3.13;;
33367;SDS011;19724;51.114;13.906;2023-02-18T04:33:24;7.85;;;1.80;;
33367;SDS011;19724;51.114;13.906;2023-02-18T04:35:49;7.60;;;2.60;;
33367;SDS011;19724;51.114;13.906;2023-02-18T04:38:15;6.13;;;2.13;;
33367;SDS011;19724;51.114;13.906;2023-02-18T04:40:40;5.05;;;2.00;;
33367;SDS011;19724;51.114;13.906;2023-02-18T04:43:05;7.32;;;2.55;;
33367;SDS011;19724;51.114;13.906;2023-02-18T04:45:31;8.73;;;2.13;;
33367;SDS011;19724;51.114;13.906;2023-02-18T04:47:57;11.38;;;2.50;;
33367;SDS011;19724;51.114;13.906;2023-02-18T04:50:22;12.15;;;2.78;;
33367;SDS011;19724;51.114;13.906;2023-02-18T04:52:48;9.07;;;3.30;;
33367;SDS011;19724;51.114;13.906;2023-02-18T04:55:13;10.65;;;2.60;;
33367;SDS011;19724;51.114;13.906;2023-02-18T04:57:38;9.98;;;2.65;;
33367;SDS011;19724;51.114;13.906;2023-02-18T05:00:05;12.90;;;2.47;;
33367;SDS011;19724;51.114;13.906;2023-02-18T05:02:32;12.70;;;2.67;;
33367;SDS011;19724;51.114;13.906;2023-02-18T05:04:58;10.07;;;2.42;;
33367;SDS011;19724;51.114;13.906;2023-02-18T05:07:23;11.57;;;2.80;;
33367;SDS011;19724;51.114;13.906;2023-02-18T05:09:49;13.48;;;3.60;;
33367;SDS011;19724;51.114;13.906;2023-02-18T05:12:14;9.10;;;2.38;;
33367;SDS011;19724;51.114;13.906;2023-02-18T05:14:40;7.45;;;2.22;;
33367;SDS011;19724;51.114;13.906;2023-02-18T05:17:05;10.52;;;3.80;;
33367;SDS011;19724;51.114;13.906;2023-02-18T05:19:30;9.25;;;2.90;;
33367;SDS011;19724;51.114;13.906;2023-02-18T05:21:56;10.00;;;2.45;;
33367;SDS011;19724;51.114;13.906;2023-02-18T05:24:21;8.95;;;3.25;;
33367;SDS011;19724;51.114;13.906;2023-02-18T05:26:47;13.27;;;3.63;;
33367;SDS011;19724;51.114;13.906;2023-02-18T05:29:12;14.57;;;3.58;;
33367;SDS011;19724;51.114;13.906;2023-02-18T05:31:38;12.00;;;4.68;;
33367;SDS011;19724;51.114;13.906;2023-02-18T05:34:03;16.05;;;4.20;;
33367;SDS011;19724;51.114;13.906;2023-02-18T05:36:29;12.48;;;4.15;;
33367;SDS011;19724;51.114;13.906;2023-02-18T05:38:54;13.15;;;3.17;;
33367;SDS011;19724;51.114;13.906;2023-02-18T05:41:20;11.63;;;3.97;;
33367;SDS011;19724;51.114;13.906;2023-02-18T05:43:46;9.80;;;3.67;;
33367;SDS011;19724;51.114;13.906;2023-02-18T05:46:30;10.68;;;3.22;;
33367;SDS011;19724;51.114;13.906;2023-02-18T05:48:55;10.27;;;3.60;;
33367;SDS011;19724;51.114;13.906;2023-02-18T05:51:21;10.73;;;3.72;;
33367;SDS011;19724;51.114;13.906;2023-02-18T05:53:46;10.00;;;3.33;;
33367;SDS011;19724;51.114;13.906;2023-02-18T05:56:12;12.60;;;4.03;;
33367;SDS011;19724;51.114;13.906;2023-02-18T05:58:37;9.73;;;3.17;;
33367;SDS011;19724;51.114;13.906;2023-02-18T06:01:03;11.38;;;3.45;;
33367;SDS011;19724;51.114;13.906;2023-02-18T06:03:28;14.48;;;4.97;;
33367;SDS011;19724;51.114;13.906;2023-02-18T06:05:54;11.88;;;3.97;;
33367;SDS011;19724;51.114;13.906;2023-02-18T06:08:20;10.55;;;3.80;;
33367;SDS011;19724;51.114;13.906;2023-02-18T06:10:45;11.13;;;4.15;;
33367;SDS011;19724;51.114;13.906;2023-02-18T06:13:11;17.48;;;5.57;;
33367;SDS011;19724;51.114;13.906;2023-02-18T06:15:37;16.73;;;4.18;;
33367;SDS011;19724;51.114;13.906;2023-02-18T06:18:03;11.55;;;4.30;;
33367;SDS011;19724;51.114;13.906;2023-02-18T06:20:29;12.00;;;4.95;;
33367;SDS011;19724;51.114;13.906;2023-02-18T06:22:55;15.98;;;6.38;;
33367;SDS011;19724;51.114;13.906;2023-02-18T06:25:20;19.05;;;5.50;;
33367;SDS011;19724;51.114;13.906;2023-02-18T06:27:46;15.43;;;6.18;;
33367;SDS011;19724;51.114;13.906;2023-02-18T06:30:12;18.77;;;5.78;;
33367;SDS011;19724;51.114;13.906;2023-02-18T06:32:37;22.98;;;8.00;;
33367;SDS011;19724;51.114;13.906;2023-02-18T06:35:03;19.60;;;6.65;;
33367;SDS011;19724;51.114;13.906;2023-02-18T06:37:28;20.20;;;6.20;;
33367;SDS011;19724;51.114;13.906;2023-02-18T06:39:54;14.68;;;7.22;;
33367;SDS011;19724;51.114;13.906;2023-02-18T06:42:19;24.65;;;7.28;;
33367;SDS011;19724;51.114;13.906;2023-02-18T06:44:45;23.15;;;6.78;;
33367;SDS011;19724;51.114;13.906;2023-02-18T06:47:10;18.98;;;7.95;;
33367;SDS011;19724;51.114;13.906;2023-02-18T06:49:36;19.13;;;8.23;;
33367;SDS011;19724;51.114;13.906;2023-02-18T06:52:02;23.95;;;8.95;;
33367;SDS011;19724;51.114;13.906;2023-02-18T06:54:28;31.02;;;10.90;;
33367;SDS011;19724;51.114;13.906;2023-02-18T06:56:54;34.03;;;11.27;;
33367;SDS011;19724;51.114;13.906;2023-02-18T06:59:19;34.55;;;16.17;;
33367;SDS011;19724;51.114;13.906;2023-02-18T07:01:44;42.40;;;13.25;;
33367;SDS011;19724;51.114;13.906;2023-02-18T07:04:10;31.77;;;13.35;;
33367;SDS011;19724;51.114;13.906;2023-02-18T07:06:35;40.60;;;15.82;;
33367;SDS011;19724;51.114;13.906;2023-02-18T07:09:01;35.38;;;13.68;;
33367;SDS011;19724;51.114;13.906;2023-02-18T07:11:26;28.00;;;14.10;;
33367;SDS011;19724;51.114;13.906;2023-02-18T07:13:52;34.33;;;15.02;;
33367;SDS011;19724;51.114;13.906;2023-02-18T07:16:17;31.83;;;15.68;;
33367;SDS011;19724;51.114;13.906;2023-02-18T07:18:43;55.90;;;17.80;;
33367;SDS011;19724;51.114;13.906;2023-02-18T07:21:09;46.17;;;16.75;;
33367;SDS011;19724;51.114;13.906;2023-02-18T07:23:35;45.28;;;18.33;;
33367;SDS011;19724;51.114;13.906;2023-02-18T07:26:07;38.35;;;17.25;;
33367;SDS011;19724;51.114;13.906;2023-02-18T07:28:50;55.25;;;19.63;;
33367;SDS011;19724;51.114;13.906;2023-02-18T07:31:16;40.35;;;17.08;;
33367;SDS011;19724;51.114;13.906;2023-02-18T07:33:42;35.85;;;15.85;;
33367;SDS011;19724;51.114;13.906;2023-02-18T07:36:11;37.95;;;16.98;;
33367;SDS011;19724;51.114;13.906;2023-02-18T07:38:46;37.92;;;16.35;;
33367;SDS011;19724;51.114;13.906;2023-02-18T07:41:14;47.10;;;17.55;;
33367;SDS011;19724;51.114;13.906;2023-02-18T07:43:43;50.40;;;20.00;;
33367;SDS011;19724;51.114;13.906;2023-02-18T07:46:09;42.15;;;18.05;;
33367;SDS011;19724;51.114;13.906;2023-02-18T07:48:35;32.33;;;14.93;;
33367;SDS011;19724;51.114;13.906;2023-02-18T07:51:08;37.20;;;16.60;;
33367;SDS011;19724;51.114;13.906;2023-02-18T07:53:35;56.30;;;19.52;;
33367;SDS011;19724;51.114;13.906;2023-02-18T07:56:01;41.97;;;19.10;;
33367;SDS011;19724;51.114;13.906;2023-02-18T07:58:29;43.03;;;18.10;;
33367;SDS011;19724;51.114;13.906;2023-02-18T08:00:56;38.20;;;17.45;;
33367;SDS011;19724;51.114;13.906;2023-02-18T08:03:24;38.95;;;17.10;;
33367;SDS011;19724;51.114;13.906;2023-02-18T08:05:52;52.70;;;17.58;;
33367;SDS011;19724;51.114;13.906;2023-02-18T08:08:19;35.05;;;16.27;;
33367;SDS011;19724;51.114;13.906;2023-02-18T08:10:48;41.15;;;18.15;;
33367;SDS011;19724;51.114;13.906;2023-02-18T08:13:14;37.30;;;15.68;;
33367;SDS011;19724;51.114;13.906;2023-02-18T08:15:40;36.67;;;14.40;;
33367;SDS011;19724;51.114;13.906;2023-02-18T08:18:07;35.88;;;17.35;;
33367;SDS011;19724;51.114;13.906;2023-02-18T08:20:38;32.60;;;16.58;;
33367;SDS011;19724;51.114;13.906;2023-02-18T08:23:04;44.17;;;15.05;;
33367;SDS011;19724;51.114;13.906;2023-02-18T08:25:30;41.58;;;17.15;;
33367;SDS011;19724;51.114;13.906;2023-02-18T08:28:01;39.88;;;15.60;;
33367;SDS011;19724;51.114;13.906;2023-02-18T08:30:27;34.67;;;15.52;;
33367;SDS011;19724;51.114;13.906;2023-02-18T08:32:53;43.85;;;19.15;;
33367;SDS011;19724;51.114;13.906;2023-02-18T08:35:19;44.03;;;18.63;;
33367;SDS011;19724;51.114;13.906;2023-02-18T08:37:44;37.15;;;17.92;;
33367;SDS011;19724;51.114;13.906;2023-02-18T08:40:10;54.25;;;17.20;;
33367;SDS011;19724;51.114;13.906;2023-02-18T08:42:36;41.92;;;15.63;;
33367;SDS011;19724;51.114;13.906;2023-02-18T08:45:02;35.15;;;16.63;;
33367;SDS011;19724;51.114;13.906;2023-02-18T08:47:28;34.17;;;16.42;;
33367;SDS011;19724;51.114;13.906;2023-02-18T08:49:54;33.03;;;15.68;;
33367;SDS011;19724;51.114;13.906;2023-02-18T08:52:20;35.25;;;17.50;;
33367;SDS011;19724;51.114;13.906;2023-02-18T08:54:46;36.25;;;16.30;;
33367;SDS011;19724;51.114;13.906;2023-02-18T08:57:11;46.53;;;16.48;;
33367;SDS011;19724;51.114;13.906;2023-02-18T08:59:37;40.30;;;17.60;;
33367;SDS011;19724;51.114;13.906;2023-02-18T09:02:03;35.58;;;16.73;;
33367;SDS011;19724;51.114;13.906;2023-02-18T09:04:29;40.15;;;15.85;;
33367;SDS011;19724;51.114;13.906;2023-02-18T09:06:54;37.60;;;18.08;;
33367;SDS011;19724;51.114;13.906;2023-02-18T09:09:20;38.92;;;16.88;;
33367;SDS011;19724;51.114;13.906;2023-02-18T09:11:45;33.47;;;16.13;;
33367;SDS011;19724;51.114;13.906;2023-02-18T09:14:11;34.47;;;16.38;;
33367;SDS011;19724;51.114;13.906;2023-02-18T09:16:37;37.45;;;14.65;;
33367;SDS011;19724;51.114;13.906;2023-02-18T09:19:03;36.95;;;17.50;;
33367;SDS011;19724;51.114;13.906;2023-02-18T09:21:29;44.47;;;18.05;;
33367;SDS011;19724;51.114;13.906;2023-02-18T09:23:55;37.45;;;16.73;;
33367;SDS011;19724;51.114;13.906;2023-02-18T09:26:21;39.83;;;16.90;;
33367;SDS011;19724;51.114;13.906;2023-02-18T09:28:49;45.30;;;19.88;;
33367;SDS011;19724;51.114;13.906;2023-02-18T09:31:16;66.07;;;19.55;;
33367;SDS011;19724;51.114;13.906;2023-02-18T09:33:46;37.42;;;17.20;;
33367;SDS011;19724;51.114;13.906;2023-02-18T09:36:14;56.97;;;20.80;;
33367;SDS011;19724;51.114;13.906;2023-02-18T09:38:40;41.95;;;17.58;;
33367;SDS011;19724;51.114;13.906;2023-02-18T09:41:07;44.25;;;19.85;;
33367;SDS011;19724;51.114;13.906;2023-02-18T09:43:41;55.28;;;24.63;;
33367;SDS011;19724;51.114;13.906;2023-02-18T09:46:19;57.67;;;28.48;;
33367;SDS011;19724;51.114;13.906;2023-02-18T09:48:48;53.17;;;31.08;;
33367;SDS011;19724;51.114;13.906;2023-02-18T09:51:16;51.22;;;24.02;;
33367;SDS011;19724;51.114;13.906;2023-02-18T09:53:43;56.42;;;26.10;;
33367;SDS011;19724;51.114;13.906;2023-02-18T09:56:11;44.05;;;23.52;;
33367;SDS011;19724;51.114;13.906;2023-02-18T09:58:40;56.17;;;25.10;;
33367;SDS011;19724;51.114;13.906;2023-02-18T10:01:25;37.40;;;19.25;;
33367;SDS011;19724;51.114;13.906;2023-02-18T10:04:02;36.25;;;17.75;;
33367;SDS011;19724;51.114;13.906;2023-02-18T10:06:35;30.30;;;15.25;;
33367;SDS011;19724;51.114;13.906;2023-02-18T10:09:21;24.23;;;13.27;;
33367;SDS011;19724;51.114;13.906;2023-02-18T10:11:57;25.77;;;13.55;;
33367;SDS011;19724;51.114;13.906;2023-02-18T10:14:47;19.15;;;11.75;;
33367;SDS011;19724;51.114;13.906;2023-02-18T10:17:18;16.67;;;9.45;;
33367;SDS011;19724;51.114;13.906;2023-02-18T10:19:48;17.90;;;9.90;;
33367;SDS011;19724;51.114;13.906;2023-02-18T10:22:16;13.05;;;8.85;;
33367;SDS011;19724;51.114;13.906;2023-02-18T10:24:45;15.90;;;9.85;;
33367;SDS011;19724;51.114;13.906;2023-02-18T10:27:25;17.00;;;9.48;;
33367;SDS011;19724;51.114;13.906;2023-02-18T10:29:53;15.27;;;7.85;;
33367;SDS011;19724;51.114;13.906;2023-02-18T10:32:38;14.20;;;7.35;;
33367;SDS011;19724;51.114;13.906;2023-02-18T10:40:50;11.75;;;6.05;;
33367;SDS011;19724;51.114;13.906;2023-02-18T10:43:42;8.05;;;5.05;;
33367;SDS011;19724;51.114;13.906;2023-02-18T10:46:36;6.25;;;4.25;;
33367;SDS011;19724;51.114;13.906;2023-02-18T10:49:26;7.18;;;4.18;;
33367;SDS011;19724;51.114;13.906;2023-02-18T10:52:04;5.97;;;4.07;;
33367;SDS011;19724;51.114;13.906;2023-02-18T10:54:48;5.50;;;3.70;;
33367;SDS011;19724;51.114;13.906;2023-02-18T10:57:24;3.78;;;2.85;;
33367;SDS011;19724;51.114;13.906;2023-02-18T11:02:22;6.22;;;3.53;;
33367;SDS011;19724;51.114;13.906;2023-02-18T11:04:49;6.07;;;3.28;;
33367;SDS011;19724;51.114;13.906;2023-02-18T11:07:20;6.05;;;2.67;;
33367;SDS011;19724;51.114;13.906;2023-02-18T11:09:50;5.95;;;3.25;;
33367;SDS011;19724;51.114;13.906;2023-02-18T11:12:24;5.22;;;3.05;;
33367;SDS011;19724;51.114;13.906;2023-02-18T11:15:04;4.32;;;2.70;;
33367;SDS011;19724;51.114;13.906;2023-02-18T11:17:40;5.57;;;2.42;;
33367;SDS011;19724;51.114;13.906;2023-02-18T11:20:24;6.55;;;2.70;;
33367;SDS011;19724;51.114;13.906;2023-02-18T11:25:32;3.55;;;2.28;;
33367;SDS011;19724;51.114;13.906;2023-02-18T11:28:00;3.85;;;2.45;;
33367;SDS011;19724;51.114;13.906;2023-02-18T11:30:34;4.10;;;2.67;;
33367;SDS011;19724;51.114;13.906;2023-02-18T11:33:05;4.90;;;2.45;;
33367;SDS011;19724;51.114;13.906;2023-02-18T11:35:33;3.30;;;2.10;;
33367;SDS011;19724;51.114;13.906;2023-02-18T11:38:01;3.70;;;2.10;;
33367;SDS011;19724;51.114;13.906;2023-02-18T11:40:32;4.53;;;2.15;;
33367;SDS011;19724;51.114;13.906;2023-02-18T11:43:10;3.88;;;2.28;;
33367;SDS011;19724;51.114;13.906;2023-02-18T11:45:41;3.17;;;1.63;;
33367;SDS011;19724;51.114;13.906;2023-02-18T11:50:41;4.60;;;1.83;;
33367;SDS011;19724;51.114;13.906;2023-02-18T11:55:55;3.53;;;2.33;;
33367;SDS011;19724;51.114;13.906;2023-02-18T11:58:22;2.03;;;1.40;;
33367;SDS011;19724;51.114;13.906;2023-02-18T12:00:49;3.58;;;1.50;;
33367;SDS011;19724;51.114;13.906;2023-02-18T12:03:37;1.75;;;0.80;;
33367;SDS011;19724;51.114;13.906;2023-02-18T12:06:13;3.15;;;0.98;;
33367;SDS011;19724;51.114;13.906;2023-02-18T12:08:50;2.05;;;1.05;;
33367;SDS011;19724;51.114;13.906;2023-02-18T12:11:23;3.50;;;1.20;;
33367;SDS011;19724;51.114;13.906;2023-02-18T12:14:08;1.15;;;0.80;;
33367;SDS011;19724;51.114;13.906;2023-02-18T12:25:39;2.38;;;1.83;;
33367;SDS011;19724;51.114;13.906;2023-02-18T12:28:14;2.13;;;1.30;;
33367;SDS011;19724;51.114;13.906;2023-02-18T12:36:32;3.78;;;1.83;;
33367;SDS011;19724;51.114;13.906;2023-02-18T12:42:11;4.18;;;2.28;;
33367;SDS011;19724;51.114;13.906;2023-02-18T12:44:40;5.32;;;2.28;;
33367;SDS011;19724;51.114;13.906;2023-02-18T12:50:27;7.70;;;2.85;;
33367;SDS011;19724;51.114;13.906;2023-02-18T12:53:17;6.05;;;2.50;;
33367;SDS011;19724;51.114;13.906;2023-02-18T13:01:28;4.25;;;2.72;;
33367;SDS011;19724;51.114;13.906;2023-02-18T13:07:12;6.68;;;3.00;;
33367;SDS011;19724;51.114;13.906;2023-02-18T13:17:59;7.50;;;3.10;;
33367;SDS011;19724;51.114;13.906;2023-02-18T13:20:40;6.60;;;3.00;;
33367;SDS011;19724;51.114;13.906;2023-02-18T13:23:16;4.55;;;3.00;;
33367;SDS011;19724;51.114;13.906;2023-02-18T13:25:44;4.82;;;2.78;;
33367;SDS011;19724;51.114;13.906;2023-02-18T13:30:51;6.45;;;2.30;;
33367;SDS011;19724;51.114;13.906;2023-02-18T13:33:31;4.60;;;2.22;;
33367;SDS011;19724;51.114;13.906;2023-02-18T13:39:14;6.00;;;2.45;;
33367;SDS011;19724;51.114;13.906;2023-02-18T13:41:43;4.57;;;2.53;;
33367;SDS011;19724;51.114;13.906;2023-02-18T13:46:59;6.80;;;2.75;;
33367;SDS011;19724;51.114;13.906;2023-02-18T13:49:32;5.63;;;3.65;;
33367;SDS011;19724;51.114;13.906;2023-02-18T13:51:59;3.35;;;2.20;;
33367;SDS011;19724;51.114;13.906;2023-02-18T13:54:27;5.95;;;2.08;;
33367;SDS011;19724;51.114;13.906;2023-02-18T13:57:16;5.03;;;2.90;;
33367;SDS011;19724;51.114;13.906;2023-02-18T13:59:46;2.88;;;1.67;;
33367;SDS011;19724;51.114;13.906;2023-02-18T14:10:04;2.70;;;1.63;;
33367;SDS011;19724;51.114;13.906;2023-02-18T14:12:37;3.83;;;2.53;;
33367;SDS011;19724;51.114;13.906;2023-02-18T14:17:42;6.35;;;1.85;;
33367;SDS011;19724;51.114;13.906;2023-02-18T14:22:43;5.43;;;2.63;;
33367;SDS011;19724;51.114;13.906;2023-02-18T14:25:21;3.35;;;1.60;;
33367;SDS011;19724;51.114;13.906;2023-02-18T14:27:49;2.97;;;1.40;;
33367;SDS011;19724;51.114;13.906;2023-02-18T14:32:45;3.00;;;1.83;;
33367;SDS011;19724;51.114;13.906;2023-02-18T14:37:55;5.80;;;2.30;;
33367;SDS011;19724;51.114;13.906;2023-02-18T14:40:57;4.35;;;1.65;;
33367;SDS011;19724;51.114;13.906;2023-02-18T14:43:55;3.03;;;1.77;;
33367;SDS011;19724;51.114;13.906;2023-02-18T14:46:38;4.15;;;1.67;;
33367;SDS011;19724;51.114;13.906;2023-02-18T14:52:16;4.90;;;1.73;;
33367;SDS011;19724;51.114;13.906;2023-02-18T14:55:05;2.83;;;1.70;;
33367;SDS011;19724;51.114;13.906;2023-02-18T14:57:39;4.32;;;1.85;;
33367;SDS011;19724;51.114;13.906;2023-02-18T15:00:18;3.53;;;1.70;;
33367;SDS011;19724;51.114;13.906;2023-02-18T15:02:47;5.00;;;1.50;;
33367;SDS011;19724;51.114;13.906;2023-02-18T15:05:18;3.08;;;1.70;;
33367;SDS011;19724;51.114;13.906;2023-02-18T15:07:58;2.30;;;1.25;;
33367;SDS011;19724;51.114;13.906;2023-02-18T15:10:26;3.17;;;1.70;;
33367;SDS011;19724;51.114;13.906;2023-02-18T15:13:01;3.78;;;1.85;;
33367;SDS011;19724;51.114;13.906;2023-02-18T15:15:28;2.13;;;1.27;;
33367;SDS011;19724;51.114;13.906;2023-02-18T15:17:54;4.50;;;1.90;;
33367;SDS011;19724;51.114;13.906;2023-02-18T15:20:20;3.88;;;1.48;;
33367;SDS011;19724;51.114;13.906;2023-02-18T15:22:47;3.03;;;1.30;;
33367;SDS011;19724;51.114;13.906;2023-02-18T15:25:12;1.90;;;1.27;;
33367;SDS011;19724;51.114;13.906;2023-02-18T15:27:39;2.58;;;1.35;;
33367;SDS011;19724;51.114;13.906;2023-02-18T15:30:27;4.43;;;1.95;;
33367;SDS011;19724;51.114;13.906;2023-02-18T15:32:55;3.78;;;2.00;;
33367;SDS011;19724;51.114;13.906;2023-02-18T15:35:25;4.20;;;1.80;;
33367;SDS011;19724;51.114;13.906;2023-02-18T15:37:54;2.35;;;1.20;;
33367;SDS011;19724;51.114;13.906;2023-02-18T15:40:24;4.78;;;1.90;;
33367;SDS011;19724;51.114;13.906;2023-02-18T15:42:56;2.70;;;1.40;;
33367;SDS011;19724;51.114;13.906;2023-02-18T15:45:24;1.27;;;0.90;;
33367;SDS011;19724;51.114;13.906;2023-02-18T15:48:11;4.43;;;1.60;;
33367;SDS011;19724;51.114;13.906;2023-02-18T15:50:54;2.63;;;1.40;;
33367;SDS011;19724;51.114;13.906;2023-02-18T15:53:22;2.13;;;1.20;;
33367;SDS011;19724;51.114;13.906;2023-02-18T15:55:51;3.45;;;1.30;;
33367;SDS011;19724;51.114;13.906;2023-02-18T16:00:55;1.58;;;0.90;;
33367;SDS011;19724;51.114;13.906;2023-02-18T16:03:23;3.67;;;1.10;;
33367;SDS011;19724;51.114;13.906;2023-02-18T16:05:51;5.18;;;1.00;;
33367;SDS011;19724;51.114;13.906;2023-02-18T16:09:02;4.38;;;1.20;;
33367;SDS011;19724;51.114;13.906;2023-02-18T16:11:34;2.10;;;1.13;;
33367;SDS011;19724;51.114;13.906;2023-02-18T16:14:19;2.73;;;1.27;;
33367;SDS011;19724;51.114;13.906;2023-02-18T16:17:04;2.38;;;1.00;;
33367;SDS011;19724;51.114;13.906;2023-02-18T16:19:58;2.13;;;1.35;;
33367;SDS011;19724;51.114;13.906;2023-02-18T16:25:06;3.47;;;1.50;;
33367;SDS011;19724;51.114;13.906;2023-02-18T16:27:33;5.45;;;2.40;;
33367;SDS011;19724;51.114;13.906;2023-02-18T16:30:02;4.93;;;2.08;;
33367;SDS011;19724;51.114;13.906;2023-02-18T16:32:39;5.45;;;2.42;;
33367;SDS011;19724;51.114;13.906;2023-02-18T16:35:04;3.80;;;1.90;;